Regatta — V7DM3 — position and weather

sailwx.info

Track history (hours):
 
Tides and Currents Weather Stations Pressure Air Temp Water Temp Dewpoint Dewpoint Depression Visibility Wind Speed Wind Dir Waves Ship Positions

Regatta

Last reported at 2017-May-26 07:00 UTC. Time now 2017-May-29 16:55 UTC.
Position N 53°00' W 130°42'.

Length 180 m; draft 5.7 m.

Type: Passenger vessel. MMSI: 538001664.

Wind from 310 at 28 knots

Barometer 1014.8 mb
Air temperature 10.0 ° C
Dewpoint 8.1 ° C
Water temperature 10.0 ° C

Date/timePositionNaut miles runAvg speedWind from/ knotsBaromVisibWave heightAir tempDewpointWater temp
2017-May-26 07:00N 53°00' W 130°42'26115.3 310 / 281014.8 10.0 8.110.0
2017-May-25 14:00N 49°20' W 127°00'816.5
2017-May-25 13:31N 49°14' W 126°51'816.3
2017-May-25 13:01N 49°09' W 126°41'816.3
2017-May-25 12:30N 49°04' W 126°31'816.2
2017-May-25 12:00N 48°59' W 126°22'815.9
2017-May-25 11:30N 48°53' W 126°13'816.0
2017-May-25 11:00N 48°48' W 126°04'816.2
2017-May-25 10:30N 48°45' W 125°53'816.2
2017-May-25 10:00N 48°41' W 125°42'816.6
2017-May-25 09:30N 48°38' W 125°30'916.9
2017-May-25 09:00N 48°33' W 125°19'816.3
2017-May-25 08:30N 48°31' W 125°08'1733.1
2017-May-25 08:01N 48°30' W 124°43'9 8.6
2017-May-25 06:58N 48°27' W 124°30'817.0
2017-May-25 06:30N 48°24' W 124°19'917.9
2017-May-25 06:00N 48°20' W 124°07'918.2
2017-May-25 05:30N 48°17' W 123°54'1219.1
2017-May-25 04:53N 48°15' W 123°36'718.8
2017-May-25 04:30N 48°13' W 123°26'713.1
2017-May-25 04:00N 48°10' W 123°18'1019.3
2017-May-25 03:30N 48°13' W 123°03'1019.6
2017-May-25 02:59N 48°11' W 122°49'1119.6
2017-May-25 02:24N 48°03' W 122°38'820.3
2017-May-25 02:00N 47°56' W 122°31'1019.3
2017-May-25 01:30N 47°47' W 122°26'918.1
2017-May-25 01:00N 47°38' W 122°26'3 6.5
2017-May-25 00:28N 47°37' W 122°21'0 0.0
2017-May-24 23:59N 47°37' W 122°21'0 0.0
2017-May-24 23:28N 47°37' W 122°21'0 0.0
2017-May-24 22:59N 47°37' W 122°21'0 0.0
2017-May-24 22:28N 47°37' W 122°21'0 0.0
2017-May-24 21:55N 47°37' W 122°21'0 0.0
2017-May-24 21:28N 47°37' W 122°21'0 0.0
2017-May-24 20:58N 47°37' W 122°21'0 0.0
2017-May-24 20:28N 47°37' W 122°21'0 0.0
2017-May-24 19:58N 47°37' W 122°21'0 0.0
2017-May-24 19:28N 47°37' W 122°21'0 0.0
2017-May-24 18:58N 47°37' W 122°21'0 0.0
2017-May-24 18:28N 47°37' W 122°21'0 0.0
2017-May-24 17:58N 47°37' W 122°21'0 0.0
2017-May-24 17:28N 47°37' W 122°21'0 0.0
2017-May-24 16:58N 47°37' W 122°21'0 0.0
2017-May-24 16:25N 47°37' W 122°21'0 0.0
2017-May-24 15:58N 47°37' W 122°21'0 0.0
2017-May-24 15:25N 47°37' W 122°21'0 0.0
2017-May-24 15:01N 47°37' W 122°21'0 0.0
2017-May-24 14:30N 47°37' W 122°21'0 0.2
2017-May-24 13:31N 47°37' W 122°21'3 5.3
2017-May-24 13:01N 47°37' W 122°25'4 7.4
2017-May-24 12:31N 47°41' W 122°28'4 8.6
2017-May-24 12:01N 47°45' W 122°27'4 8.5
2017-May-24 11:30N 47°49' W 122°28'4 8.0
2017-May-24 11:01N 47°53' W 122°29'4 7.9
2017-May-24 10:29N 47°56' W 122°32'4 8.0
2017-May-24 10:00N 47°59' W 122°36'5 8.1
2017-May-24 09:26N 48°03' W 122°39'4 8.0
2017-May-24 09:00N 48°07' W 122°41'5 9.6
2017-May-24 08:30N 48°10' W 122°46'4 8.9
2017-May-24 08:00N 48°11' W 122°52'4 8.4
2017-May-24 07:30N 48°12' W 122°59'5 8.9
2017-May-24 06:58N 48°12' W 123°06'4 8.6
2017-May-24 06:30N 48°12' W 123°12'4 8.8
2017-May-24 06:01N 48°11' W 123°18'5 9.6
2017-May-24 05:30N 48°11' W 123°25'816.1
2017-May-24 05:00N 48°19' W 123°28'5 9.3
2017-May-24 04:31N 48°22' W 123°23'4 7.9
2017-May-24 04:01N 48°23' W 123°17'510.5
2017-May-24 03:30N 48°27' W 123°11'713.9
2017-May-24 03:00N 48°33' W 123°13'714.2
2017-May-24 02:30N 48°40' W 123°15'510.7
2017-May-24 02:00N 48°44' W 123°09'612.0
2017-May-24 01:30N 48°47' W 123°01'610.5
2017-May-24 00:58N 48°52' W 123°05'612.7
2017-May-24 00:30N 48°56' W 123°12'712.8
2017-May-23 23:59N 48°60' W 123°20'612.8
2017-May-23 23:30N 49°04' W 123°27'612.3
2017-May-23 23:00N 49°10' W 123°30'611.5
2017-May-23 22:30N 49°15' W 123°29'612.6
2017-May-23 22:00N 49°18' W 123°20'612.5
2017-May-23 21:30N 49°19' W 123°11'4 8.0
2017-May-23 21:00N 49°18' W 123°05'0 0.5
2017-May-23 20:30N 49°18' W 123°05'0 0.0
2017-May-23 20:00N 49°18' W 123°05'0 0.0
2017-May-23 19:30N 49°18' W 123°05'0 0.0
2017-May-23 19:00N 49°18' W 123°05'0 0.0
2017-May-23 18:30N 49°18' W 123°05'0 0.0
2017-May-23 17:59N 49°18' W 123°05'0 0.0
2017-May-23 17:29N 49°18' W 123°05'0 0.0
2017-May-23 16:59N 49°18' W 123°05'0 0.0
2017-May-23 16:29N 49°18' W 123°05'0 0.0
2017-May-23 15:59N 49°18' W 123°05'0 0.0
2017-May-23 15:29N 49°18' W 123°05'0 0.0
2017-May-23 14:59N 49°18' W 123°05'0 0.0
2017-May-23 14:29N 49°18' W 123°05'0 0.0
2017-May-23 13:29N 49°18' W 123°05'0 0.0
2017-May-23 12:59N 49°18' W 123°05'0 0.0
2017-May-23 12:29N 49°18' W 123°05'0 0.0
2017-May-23 11:59N 49°18' W 123°05'0 0.0
2017-May-23 11:29N 49°18' W 123°05'0 0.0
2017-May-23 10:59N 49°18' W 123°05'0 0.0
2017-May-23 10:29N 49°18' W 123°05'0 0.0
2017-May-23 09:59N 49°18' W 123°05'0 0.0
2017-May-23 09:29N 49°18' W 123°05'0 0.0
2017-May-23 08:59N 49°18' W 123°05'0 0.0
2017-May-23 08:29N 49°18' W 123°05'0 0.0
2017-May-23 07:59N 49°18' W 123°05'0 0.0
2017-May-23 07:29N 49°18' W 123°05'0 0.0
2017-May-23 06:59N 49°18' W 123°05'0 0.0
2017-May-23 06:29N 49°18' W 123°05'0 0.0
2017-May-23 05:59N 49°18' W 123°05'0 0.0
2017-May-23 05:29N 49°18' W 123°05'0 0.0
2017-May-23 04:59N 49°18' W 123°05'0 0.0
2017-May-23 04:29N 49°18' W 123°05'0 0.0
2017-May-23 03:59N 49°18' W 123°05'0 0.0
2017-May-23 03:29N 49°18' W 123°05'0 0.0
2017-May-23 02:59N 49°18' W 123°05'0 0.0
2017-May-23 02:29N 49°18' W 123°05'0 0.0
2017-May-23 01:59N 49°18' W 123°05'0 0.0
2017-May-23 01:29N 49°18' W 123°05'0 0.0
2017-May-23 00:59N 49°18' W 123°05'0 0.0
2017-May-23 00:29N 49°18' W 123°05'0 0.0
2017-May-22 23:59N 49°18' W 123°05'0 0.0
2017-May-22 23:29N 49°18' W 123°05'0 0.0
2017-May-22 22:59N 49°18' W 123°05'0 0.0
2017-May-22 22:29N 49°18' W 123°05'0 0.0
2017-May-22 21:59N 49°18' W 123°05'0 0.0
2017-May-22 21:29N 49°18' W 123°05'0 0.0
2017-May-22 20:59N 49°18' W 123°05'0 0.0
2017-May-22 20:29N 49°18' W 123°05'0 0.0
2017-May-22 19:59N 49°18' W 123°05'0 0.0
2017-May-22 19:29N 49°18' W 123°05'0 0.0
2017-May-22 18:59N 49°18' W 123°05'0 0.0
2017-May-22 18:29N 49°18' W 123°05'0 0.0
2017-May-22 17:59N 49°18' W 123°05'0 0.0
2017-May-22 17:29N 49°18' W 123°05'0 0.0
2017-May-22 16:59N 49°18' W 123°05'0 0.0
2017-May-22 16:29N 49°18' W 123°05'0 0.0
2017-May-22 15:59N 49°18' W 123°05'0 0.0
2017-May-22 15:29N 49°18' W 123°05'0 0.0
2017-May-22 14:59N 49°18' W 123°05'0 0.0
2017-May-22 13:59N 49°18' W 123°05'0 0.0
2017-May-22 13:29N 49°18' W 123°05'0 0.0
2017-May-22 12:59N 49°18' W 123°05'0 0.0
2017-May-22 12:29N 49°18' W 123°05'0 0.0
2017-May-22 11:59N 49°18' W 123°05'0 0.0
2017-May-22 11:29N 49°18' W 123°05'0 0.0
2017-May-22 10:59N 49°18' W 123°05'0 0.0
2017-May-22 10:29N 49°18' W 123°05'0 0.0
2017-May-22 09:59N 49°18' W 123°05'0 0.0
2017-May-22 09:29N 49°18' W 123°05'0 0.0
2017-May-22 08:59N 49°18' W 123°05'0 0.0
2017-May-22 08:29N 49°18' W 123°05'0 0.0
2017-May-22 07:59N 49°18' W 123°05'0 0.0
2017-May-22 07:29N 49°18' W 123°05'0 0.0
2017-May-22 06:59N 49°18' W 123°05'0 0.0
2017-May-22 06:29N 49°18' W 123°05'0 0.0
2017-May-22 05:59N 49°18' W 123°05'0 0.0
2017-May-22 05:29N 49°18' W 123°05'0 0.0
2017-May-22 04:59N 49°18' W 123°05'0 0.0
2017-May-22 04:29N 49°18' W 123°05'0 0.0
2017-May-22 03:59N 49°18' W 123°05'0 0.0
2017-May-22 03:29N 49°18' W 123°05'0 0.0
2017-May-22 02:59N 49°18' W 123°05'0 0.0
2017-May-22 02:29N 49°18' W 123°05'0 0.0
2017-May-22 01:59N 49°18' W 123°05'0 0.0
2017-May-22 01:29N 49°18' W 123°05'0 0.0
2017-May-22 00:59N 49°18' W 123°05'0 0.0
2017-May-22 00:29N 49°18' W 123°05'0 0.0
2017-May-21 23:59N 49°18' W 123°05'0 0.0
2017-May-21 23:29N 49°18' W 123°05'0 0.0
2017-May-21 22:59N 49°18' W 123°05'0 0.0
2017-May-21 22:29N 49°18' W 123°05'0 0.0
2017-May-21 21:58N 49°18' W 123°05'0 0.0
2017-May-21 21:28N 49°18' W 123°05'0 0.1
2017-May-21 21:01N 49°18' W 123°05'0 0.2
2017-May-21 20:28N 49°18' W 123°05'0 0.9
2017-May-21 19:58N 49°18' W 123°05'1 2.3
2017-May-21 19:30N 49°18' W 123°06'0 0.5
2017-May-21 18:59N 49°17' W 123°06'0 0.0
2017-May-21 18:29N 49°17' W 123°06'0 0.0
2017-May-21 17:59N 49°17' W 123°06'0 0.0
2017-May-21 17:29N 49°17' W 123°06'0 0.0
2017-May-21 16:59N 49°17' W 123°06'0 0.0
2017-May-21 16:29N 49°17' W 123°06'0 0.0
2017-May-21 15:59N 49°17' W 123°06'0 0.0
2017-May-21 15:29N 49°17' W 123°06'0 0.0
2017-May-21 14:59N 49°17' W 123°06'0 0.0
2017-May-21 14:29N 49°17' W 123°06'3 2.6
2017-May-21 13:30N 49°19' W 123°09'4 8.2
2017-May-21 13:00N 49°18' W 123°16'4 8.9
2017-May-21 12:30N 49°18' W 123°22'5 9.9
2017-May-21 12:00N 49°17' W 123°30'5 9.9
2017-May-21 11:30N 49°18' W 123°38'510.3
2017-May-21 11:00N 49°18' W 123°45'610.2
2017-May-21 10:27N 49°20' W 123°54'18 9.8
2017-May-21 08:36N 49°25' W 124°21'1 9.9
2017-May-21 08:30N 49°25' W 124°22'5 9.9
2017-May-21 07:58N 49°29' W 124°28'510.0
2017-May-21 07:29N 49°32' W 124°33'510.5
2017-May-21 07:00N 49°36' W 124°38'510.3
2017-May-21 06:30N 49°40' W 124°43'510.0
2017-May-21 06:00N 49°43' W 124°49'510.1
2017-May-21 05:30N 49°47' W 124°54'510.0
2017-May-21 05:00N 49°51' W 124°59'5 9.5
2017-May-21 04:30N 49°54' W 125°04'5 9.8
2017-May-21 04:00N 49°58' W 125°09'511.0
2017-May-21 03:30N 50°02' W 125°14'612.0
2017-May-21 03:00N 50°07' W 125°20'713.1
2017-May-21 02:30N 50°13' W 125°23'813.5
2017-May-21 01:57N 50°20' W 125°27'3315.8
2017-May-20 23:52N 50°29' W 126°17'3215.0
2017-May-20 21:44N 50°43' W 127°02'417.2
2017-May-20 21:30N 50°45' W 127°08'817.1
2017-May-20 21:00N 50°48' W 127°20'816.6
2017-May-20 20:30N 50°51' W 127°32'815.9
2017-May-20 20:00N 50°56' W 127°42'816.1
2017-May-20 19:30N 51°00' W 127°53'1316.4
2017-May-20 18:44N 51°04' W 128°13'417.1
2017-May-20 18:30N 51°05' W 128°18'917.2
2017-May-20 18:00N 51°08' W 128°31'917.4
2017-May-20 17:31N 51°12' W 128°44'917.4
2017-May-20 17:00N 51°15' W 128°57'917.2
2017-May-20 16:30N 51°18' W 129°10'816.7
2017-May-20 16:00N 51°22' W 129°21'1216.9
2017-May-20 15:19N 51°31' W 129°35'817.2
2017-May-20 14:51N 51°36' W 129°43'1117.1
2017-May-20 14:12N 51°44' W 129°56'1316.8
2017-May-20 13:26N 51°56' W 130°04'  
2017-May-18 08:00N 57°54' W 136°36'48 2.0 100 / 81020.5 9.5 7.6 8.0
2017-May-17 08:00N 58°18' W 137°54'   050 / 31017.6 8.5 7.5 8.0
Track history (hours):
 
Tides and Currents Weather Stations Pressure Air Temp Water Temp Dewpoint Dewpoint Depression Visibility Wind Speed Wind Dir Waves Ship Positions

Regatta

Last reported at 2017-May-26 07:00 UTC. Time now 2017-May-29 16:55 UTC.
Position N 53°00' W 130°42'.

Length 180 m; draft 5.7 m.

Type: Passenger vessel. MMSI: 538001664.

Wind from 310 at 28 knots

Barometer 1014.8 mb
Air temperature 10.0 ° C
Dewpoint 8.1 ° C
Water temperature 10.0 ° C

Date/timePositionNaut miles runAvg speedWind from/ knotsBaromVisibWave heightAir tempDewpointWater temp
2017-May-26 07:00N 53°00' W 130°42'26115.3 310 / 281014.8 10.0 8.110.0
2017-May-25 14:00N 49°20' W 127°00'816.5
2017-May-25 13:31N 49°14' W 126°51'816.3
2017-May-25 13:01N 49°09' W 126°41'816.3
2017-May-25 12:30N 49°04' W 126°31'816.2
2017-May-25 12:00N 48°59' W 126°22'815.9
2017-May-25 11:30N 48°53' W 126°13'816.0
2017-May-25 11:00N 48°48' W 126°04'816.2
2017-May-25 10:30N 48°45' W 125°53'816.2
2017-May-25 10:00N 48°41' W 125°42'816.6
2017-May-25 09:30N 48°38' W 125°30'916.9
2017-May-25 09:00N 48°33' W 125°19'816.3
2017-May-25 08:30N 48°31' W 125°08'1733.1
2017-May-25 08:01N 48°30' W 124°43'9 8.6
2017-May-25 06:58N 48°27' W 124°30'817.0
2017-May-25 06:30N 48°24' W 124°19'917.9
2017-May-25 06:00N 48°20' W 124°07'918.2
2017-May-25 05:30N 48°17' W 123°54'1219.1
2017-May-25 04:53N 48°15' W 123°36'718.8
2017-May-25 04:30N 48°13' W 123°26'713.1
2017-May-25 04:00N 48°10' W 123°18'1019.3
2017-May-25 03:30N 48°13' W 123°03'1019.6
2017-May-25 02:59N 48°11' W 122°49'1119.6
2017-May-25 02:24N 48°03' W 122°38'820.3
2017-May-25 02:00N 47°56' W 122°31'1019.3
2017-May-25 01:30N 47°47' W 122°26'918.1
2017-May-25 01:00N 47°38' W 122°26'3 6.5
2017-May-25 00:28N 47°37' W 122°21'0 0.0
2017-May-24 23:59N 47°37' W 122°21'0 0.0
2017-May-24 23:28N 47°37' W 122°21'0 0.0
2017-May-24 22:59N 47°37' W 122°21'0 0.0
2017-May-24 22:28N 47°37' W 122°21'0 0.0
2017-May-24 21:55N 47°37' W 122°21'0 0.0
2017-May-24 21:28N 47°37' W 122°21'0 0.0
2017-May-24 20:58N 47°37' W 122°21'0 0.0
2017-May-24 20:28N 47°37' W 122°21'0 0.0
2017-May-24 19:58N 47°37' W 122°21'0 0.0
2017-May-24 19:28N 47°37' W 122°21'0 0.0
2017-May-24 18:58N 47°37' W 122°21'0 0.0
2017-May-24 18:28N 47°37' W 122°21'0 0.0
2017-May-24 17:58N 47°37' W 122°21'0 0.0
2017-May-24 17:28N 47°37' W 122°21'0 0.0
2017-May-24 16:58N 47°37' W 122°21'0 0.0
2017-May-24 16:25N 47°37' W 122°21'0 0.0
2017-May-24 15:58N 47°37' W 122°21'0 0.0
2017-May-24 15:25N 47°37' W 122°21'0 0.0
2017-May-24 15:01N 47°37' W 122°21'0 0.0
2017-May-24 14:30N 47°37' W 122°21'0 0.2
2017-May-24 13:31N 47°37' W 122°21'3 5.3
2017-May-24 13:01N 47°37' W 122°25'4 7.4
2017-May-24 12:31N 47°41' W 122°28'4 8.6
2017-May-24 12:01N 47°45' W 122°27'4 8.5
2017-May-24 11:30N 47°49' W 122°28'4 8.0
2017-May-24 11:01N 47°53' W 122°29'4 7.9
2017-May-24 10:29N 47°56' W 122°32'4 8.0
2017-May-24 10:00N 47°59' W 122°36'5 8.1
2017-May-24 09:26N 48°03' W 122°39'4 8.0
2017-May-24 09:00N 48°07' W 122°41'5 9.6
2017-May-24 08:30N 48°10' W 122°46'4 8.9
2017-May-24 08:00N 48°11' W 122°52'4 8.4
2017-May-24 07:30N 48°12' W 122°59'5 8.9
2017-May-24 06:58N 48°12' W 123°06'4 8.6
2017-May-24 06:30N 48°12' W 123°12'4 8.8
2017-May-24 06:01N 48°11' W 123°18'5 9.6
2017-May-24 05:30N 48°11' W 123°25'816.1
2017-May-24 05:00N 48°19' W 123°28'5 9.3
2017-May-24 04:31N 48°22' W 123°23'4 7.9
2017-May-24 04:01N 48°23' W 123°17'510.5
2017-May-24 03:30N 48°27' W 123°11'713.9
2017-May-24 03:00N 48°33' W 123°13'714.2
2017-May-24 02:30N 48°40' W 123°15'510.7
2017-May-24 02:00N 48°44' W 123°09'612.0
2017-May-24 01:30N 48°47' W 123°01'610.5
2017-May-24 00:58N 48°52' W 123°05'612.7
2017-May-24 00:30N 48°56' W 123°12'712.8
2017-May-23 23:59N 48°60' W 123°20'612.8
2017-May-23 23:30N 49°04' W 123°27'612.3
2017-May-23 23:00N 49°10' W 123°30'611.5
2017-May-23 22:30N 49°15' W 123°29'612.6
2017-May-23 22:00N 49°18' W 123°20'612.5
2017-May-23 21:30N 49°19' W 123°11'4 8.0
2017-May-23 21:00N 49°18' W 123°05'0 0.5
2017-May-23 20:30N 49°18' W 123°05'0 0.0
2017-May-23 20:00N 49°18' W 123°05'0 0.0
2017-May-23 19:30N 49°18' W 123°05'0 0.0
2017-May-23 19:00N 49°18' W 123°05'0 0.0
2017-May-23 18:30N 49°18' W 123°05'0 0.0
2017-May-23 17:59N 49°18' W 123°05'0 0.0
2017-May-23 17:29N 49°18' W 123°05'0 0.0
2017-May-23 16:59N 49°18' W 123°05'0 0.0
2017-May-23 16:29N 49°18' W 123°05'0 0.0
2017-May-23 15:59N 49°18' W 123°05'0 0.0
2017-May-23 15:29N 49°18' W 123°05'0 0.0
2017-May-23 14:59N 49°18' W 123°05'0 0.0
2017-May-23 14:29N 49°18' W 123°05'0 0.0
2017-May-23 13:29N 49°18' W 123°05'0 0.0
2017-May-23 12:59N 49°18' W 123°05'0 0.0
2017-May-23 12:29N 49°18' W 123°05'0 0.0
2017-May-23 11:59N 49°18' W 123°05'0 0.0
2017-May-23 11:29N 49°18' W 123°05'0 0.0
2017-May-23 10:59N 49°18' W 123°05'0 0.0
2017-May-23 10:29N 49°18' W 123°05'0 0.0
2017-May-23 09:59N 49°18' W 123°05'0 0.0
2017-May-23 09:29N 49°18' W 123°05'0 0.0
2017-May-23 08:59N 49°18' W 123°05'0 0.0
2017-May-23 08:29N 49°18' W 123°05'0 0.0
2017-May-23 07:59N 49°18' W 123°05'0 0.0
2017-May-23 07:29N 49°18' W 123°05'0 0.0
2017-May-23 06:59N 49°18' W 123°05'0 0.0
2017-May-23 06:29N 49°18' W 123°05'0 0.0
2017-May-23 05:59N 49°18' W 123°05'0 0.0
2017-May-23 05:29N 49°18' W 123°05'0 0.0
2017-May-23 04:59N 49°18' W 123°05'0 0.0
2017-May-23 04:29N 49°18' W 123°05'0 0.0
2017-May-23 03:59N 49°18' W 123°05'0 0.0
2017-May-23 03:29N 49°18' W 123°05'0 0.0
2017-May-23 02:59N 49°18' W 123°05'0 0.0
2017-May-23 02:29N 49°18' W 123°05'0 0.0
2017-May-23 01:59N 49°18' W 123°05'0 0.0
2017-May-23 01:29N 49°18' W 123°05'0 0.0
2017-May-23 00:59N 49°18' W 123°05'0 0.0
2017-May-23 00:29N 49°18' W 123°05'0 0.0
2017-May-22 23:59N 49°18' W 123°05'0 0.0
2017-May-22 23:29N 49°18' W 123°05'0 0.0
2017-May-22 22:59N 49°18' W 123°05'0 0.0
2017-May-22 22:29N 49°18' W 123°05'0 0.0
2017-May-22 21:59N 49°18' W 123°05'0 0.0
2017-May-22 21:29N 49°18' W 123°05'0 0.0
2017-May-22 20:59N 49°18' W 123°05'0 0.0
2017-May-22 20:29N 49°18' W 123°05'0 0.0
2017-May-22 19:59N 49°18' W 123°05'0 0.0
2017-May-22 19:29N 49°18' W 123°05'0 0.0
2017-May-22 18:59N 49°18' W 123°05'0 0.0
2017-May-22 18:29N 49°18' W 123°05'0 0.0
2017-May-22 17:59N 49°18' W 123°05'0 0.0
2017-May-22 17:29N 49°18' W 123°05'0 0.0
2017-May-22 16:59N 49°18' W 123°05'0 0.0
2017-May-22 16:29N 49°18' W 123°05'0 0.0
2017-May-22 15:59N 49°18' W 123°05'0 0.0
2017-May-22 15:29N 49°18' W 123°05'0 0.0
2017-May-22 14:59N 49°18' W 123°05'0 0.0
2017-May-22 13:59N 49°18' W 123°05'0 0.0
2017-May-22 13:29N 49°18' W 123°05'0 0.0
2017-May-22 12:59N 49°18' W 123°05'0 0.0
2017-May-22 12:29N 49°18' W 123°05'0 0.0
2017-May-22 11:59N 49°18' W 123°05'0 0.0
2017-May-22 11:29N 49°18' W 123°05'0 0.0
2017-May-22 10:59N 49°18' W 123°05'0 0.0
2017-May-22 10:29N 49°18' W 123°05'0 0.0
2017-May-22 09:59N 49°18' W 123°05'0 0.0
2017-May-22 09:29N 49°18' W 123°05'0 0.0
2017-May-22 08:59N 49°18' W 123°05'0 0.0
2017-May-22 08:29N 49°18' W 123°05'0 0.0
2017-May-22 07:59N 49°18' W 123°05'0 0.0
2017-May-22 07:29N 49°18' W 123°05'0 0.0
2017-May-22 06:59N 49°18' W 123°05'0 0.0
2017-May-22 06:29N 49°18' W 123°05'0 0.0
2017-May-22 05:59N 49°18' W 123°05'0 0.0
2017-May-22 05:29N 49°18' W 123°05'0 0.0
2017-May-22 04:59N 49°18' W 123°05'0 0.0
2017-May-22 04:29N 49°18' W 123°05'0 0.0
2017-May-22 03:59N 49°18' W 123°05'0 0.0
2017-May-22 03:29N 49°18' W 123°05'0 0.0
2017-May-22 02:59N 49°18' W 123°05'0 0.0
2017-May-22 02:29N 49°18' W 123°05'0 0.0
2017-May-22 01:59N 49°18' W 123°05'0 0.0
2017-May-22 01:29N 49°18' W 123°05'0 0.0
2017-May-22 00:59N 49°18' W 123°05'0 0.0
2017-May-22 00:29N 49°18' W 123°05'0 0.0
2017-May-21 23:59N 49°18' W 123°05'0 0.0
2017-May-21 23:29N 49°18' W 123°05'0 0.0
2017-May-21 22:59N 49°18' W 123°05'0 0.0
2017-May-21 22:29N 49°18' W 123°05'0 0.0
2017-May-21 21:58N 49°18' W 123°05'0 0.0
2017-May-21 21:28N 49°18' W 123°05'0 0.1
2017-May-21 21:01N 49°18' W 123°05'0 0.2
2017-May-21 20:28N 49°18' W 123°05'0 0.9
2017-May-21 19:58N 49°18' W 123°05'1 2.3
2017-May-21 19:30N 49°18' W 123°06'0 0.5
2017-May-21 18:59N 49°17' W 123°06'0 0.0
2017-May-21 18:29N 49°17' W 123°06'0 0.0
2017-May-21 17:59N 49°17' W 123°06'0 0.0
2017-May-21 17:29N 49°17' W 123°06'0 0.0
2017-May-21 16:59N 49°17' W 123°06'0 0.0
2017-May-21 16:29N 49°17' W 123°06'0 0.0
2017-May-21 15:59N 49°17' W 123°06'0 0.0
2017-May-21 15:29N 49°17' W 123°06'0 0.0
2017-May-21 14:59N 49°17' W 123°06'0 0.0
2017-May-21 14:29N 49°17' W 123°06'3 2.6
2017-May-21 13:30N 49°19' W 123°09'4 8.2
2017-May-21 13:00N 49°18' W 123°16'4 8.9
2017-May-21 12:30N 49°18' W 123°22'5 9.9
2017-May-21 12:00N 49°17' W 123°30'5 9.9
2017-May-21 11:30N 49°18' W 123°38'510.3
2017-May-21 11:00N 49°18' W 123°45'610.2
2017-May-21 10:27N 49°20' W 123°54'18 9.8
2017-May-21 08:36N 49°25' W 124°21'1 9.9
2017-May-21 08:30N 49°25' W 124°22'5 9.9
2017-May-21 07:58N 49°29' W 124°28'510.0
2017-May-21 07:29N 49°32' W 124°33'510.5
2017-May-21 07:00N 49°36' W 124°38'510.3
2017-May-21 06:30N 49°40' W 124°43'510.0
2017-May-21 06:00N 49°43' W 124°49'510.1
2017-May-21 05:30N 49°47' W 124°54'510.0
2017-May-21 05:00N 49°51' W 124°59'5 9.5
2017-May-21 04:30N 49°54' W 125°04'5 9.8
2017-May-21 04:00N 49°58' W 125°09'511.0
2017-May-21 03:30N 50°02' W 125°14'612.0
2017-May-21 03:00N 50°07' W 125°20'713.1
2017-May-21 02:30N 50°13' W 125°23'813.5
2017-May-21 01:57N 50°20' W 125°27'3315.8
2017-May-20 23:52N 50°29' W 126°17'3215.0
2017-May-20 21:44N 50°43' W 127°02'417.2
2017-May-20 21:30N 50°45' W 127°08'817.1
2017-May-20 21:00N 50°48' W 127°20'816.6
2017-May-20 20:30N 50°51' W 127°32'815.9
2017-May-20 20:00N 50°56' W 127°42'816.1
2017-May-20 19:30N 51°00' W 127°53'1316.4
2017-May-20 18:44N 51°04' W 128°13'417.1
2017-May-20 18:30N 51°05' W 128°18'917.2
2017-May-20 18:00N 51°08' W 128°31'917.4
2017-May-20 17:31N 51°12' W 128°44'917.4
2017-May-20 17:00N 51°15' W 128°57'917.2
2017-May-20 16:30N 51°18' W 129°10'816.7
2017-May-20 16:00N 51°22' W 129°21'1216.9
2017-May-20 15:19N 51°31' W 129°35'817.2
2017-May-20 14:51N 51°36' W 129°43'1117.1
2017-May-20 14:12N 51°44' W 129°56'1316.8
2017-May-20 13:26N 51°56' W 130°04'  
2017-May-18 08:00N 57°54' W 136°36'48 2.0 100 / 81020.5 9.5 7.6 8.0
2017-May-17 08:00N 58°18' W 137°54'   050 / 31017.6 8.5 7.5 8.0

Dump ship's entire track history